Terminal Aerodrome Forecast
Issued by NWS

Home | Current Version | Previous Version | Text Only | Print | Product List | Glossary On
Versions: 1 2 3 4 5 6 7 8 9 10 11 12 13
000
FTUS44 KBMX 290520
TAFMGM
TAF
KMGM 290520Z 2906/3006 10003KT P6SM BKN250
     FM290800 09005KT 4SM BR SCT007 OVC015
      TEMPO 2910/2912 BKN007
     FM291300 11007KT 4SM SHRA VCTS BKN050CB
     FM300000 11006KT P6SM VCTS SCT025CB OVC050=

USA.gov is the U.S. government's official web portal to all federal, state and local government web resources and services.